Bushnell, Nebraska
Current Conditions -  °F | °C
As of 12:15 PM on Tuesday 21 Oct 2014 (Local Time) from KIBM Reporting Station
Clear Clear  
Wind Chill: 75°   Ceiling: Unl
Heat Index: 75°   Visibility: 10mi
Dew Point: 36°   Wind: 5mph
Humidity: 24%   Direction: 100°E
Pressure: 29.95"   Gusts: NA
Location:  41.23°N, 103.89°W
Report Text: KIBM 211815Z AUTO 10004KT 10SM CLR 24/02 A2995 RMK AO2 T02390020
Loading
Personal Weather Stations






























Interactive Weather Map
Tropical Storm Tracking
New forecast layout! Learn more

10-Day Weather Forecast

Advertisements
Track Severe Weather on mobile